Time;durP1;ratioP1;P1;durP2;ratioP2;P2;SDS_P1;SDS_P2;PMS_P1;PMS_P2;Temp;Humidity;BMP_temperature;BMP_pressure;BME280_temperature;BME280_humidity;BME280_pressure;Samples;Min_cycle;Max_cycle;Signal;HPM_P1;HPM_P2
2022/02/14 00:02:12;;;;;;;6.10;1.67;;;;;;;;;;5040445;28;20155;-49
2022/02/14 00:04:38;;;;;;;6.65;1.92;;;;;;;;;;5044056;28;20059;-50
2022/02/14 00:07:04;;;;;;;7.10;2.00;;;;;;;;;;5045094;28;20110;-52
2022/02/14 00:09:30;;;;;;;6.07;2.00;;;;;;;;;;5044857;28;20029;-51
2022/02/14 00:11:56;;;;;;;5.78;2.42;;;;;;;;;;5044920;28;20102;-49
2022/02/14 00:14:24;;;;;;;8.75;2.20;;;;;;;;;;5039586;28;20232;-51
2022/02/14 00:16:50;;;;;;;7.53;1.92;;;;;;;;;;5029651;28;20025;-49
2022/02/14 00:19:16;;;;;;;8.27;2.40;;;;;;;;;;5026180;28;20068;-52
2022/02/14 00:21:42;;;;;;;8.05;2.05;;;;;;;;;;5029777;28;20456;-51
2022/02/14 00:24:09;;;;;;;4.57;2.00;;;;;;;;;;5047139;28;20025;-52
2022/02/14 00:26:36;;;;;;;8.35;2.28;;;;;;;;;;5046292;28;20071;-49
2022/02/14 00:29:03;;;;;;;6.50;2.50;;;;;;;;;;5046328;28;20064;-52
2022/02/14 00:31:29;;;;;;;5.25;2.47;;;;;;;;;;5046613;28;20571;-49
2022/02/14 00:33:56;;;;;;;5.05;1.88;;;;;;;;;;5046031;28;20037;-50
2022/02/14 00:36:22;;;;;;;5.13;1.92;;;;;;;;;;5042104;28;20155;-49
2022/02/14 00:38:48;;;;;;;7.10;2.03;;;;;;;;;;5025327;28;20025;-48
2022/02/14 00:41:15;;;;;;;3.38;1.63;;;;;;;;;;5039140;28;20029;-49
2022/02/14 00:43:41;;;;;;;5.25;1.83;;;;;;;;;;5045543;28;20041;-51
2022/02/14 00:46:07;;;;;;;5.28;1.70;;;;;;;;;;5030551;28;20537;-51
2022/02/14 00:48:33;;;;;;;3.63;1.65;;;;;;;;;;5026468;28;20727;-50
2022/02/14 00:50:59;;;;;;;4.25;2.03;;;;;;;;;;5025654;28;20489;-49
2022/02/14 00:53:25;;;;;;;6.75;2.22;;;;;;;;;;5027260;28;20087;-50
2022/02/14 00:55:52;;;;;;;10.80;3.13;;;;;;;;;;5026981;28;20088;-51
2022/02/14 00:58:18;;;;;;;9.63;2.40;;;;;;;;;;5026396;28;20577;-50
2022/02/14 01:00:45;;;;;;;9.50;2.85;;;;;;;;;;5027188;28;20029;-51
2022/02/14 01:03:11;;;;;;;6.03;2.60;;;;;;;;;;5045787;28;20551;-49
2022/02/14 01:05:37;;;;;;;7.70;2.67;;;;;;;;;;5046010;28;20021;-50
2022/02/14 01:08:04;;;;;;;5.85;2.25;;;;;;;;;;5045775;28;20060;-50
2022/02/14 01:10:30;;;;;;;8.48;2.10;;;;;;;;;;5045985;28;20068;-49
2022/02/14 01:12:56;;;;;;;5.55;2.53;;;;;;;;;;5045177;28;20550;-52
2022/02/14 01:15:22;;;;;;;7.95;2.45;;;;;;;;;;5046678;28;20028;-49
2022/02/14 01:17:48;;;;;;;7.70;2.72;;;;;;;;;;5045670;28;20409;-51
2022/02/14 01:20:14;;;;;;;4.40;2.55;;;;;;;;;;5045521;28;20036;-51
2022/02/14 01:22:42;;;;;;;7.63;2.55;;;;;;;;;;5044578;28;20041;-50
2022/02/14 01:25:08;;;;;;;9.45;2.35;;;;;;;;;;5046279;28;20025;-48
2022/02/14 01:27:34;;;;;;;9.73;2.70;;;;;;;;;;5045988;28;20143;-50
2022/02/14 01:30:00;;;;;;;7.03;2.20;;;;;;;;;;5045985;28;20053;-49
2022/02/14 01:32:27;;;;;;;6.63;2.30;;;;;;;;;;5044860;28;20033;-51
2022/02/14 01:34:54;;;;;;;9.13;2.42;;;;;;;;;;5046464;28;20032;-51
2022/02/14 01:37:21;;;;;;;8.32;3.08;;;;;;;;;;5046163;28;20029;-48
2022/02/14 01:39:47;;;;;;;7.10;2.60;;;;;;;;;;5045743;28;20040;-52
2022/02/14 01:42:13;;;;;;;8.95;2.88;;;;;;;;;;5044742;28;20033;-50
2022/02/14 01:44:42;;;;;;;9.98;2.00;;;;;;;;;;5045444;28;20152;-52
2022/02/14 01:47:13;;;;;;;8.15;2.67;;;;;;;;;;5045484;28;20028;-50
2022/02/14 01:49:39;;;;;;;7.20;2.20;;;;;;;;;;5045490;28;20033;-49
2022/02/14 01:52:06;;;;;;;5.22;2.35;;;;;;;;;;5044711;28;20029;-50
2022/02/14 01:54:34;;;;;;;9.70;2.85;;;;;;;;;;5045558;28;20028;-51
2022/02/14 01:57:01;;;;;;;11.48;2.47;;;;;;;;;;5045422;28;20025;-50
2022/02/14 01:59:27;;;;;;;7.55;2.97;;;;;;;;;;5045075;28;20487;-49
2022/02/14 02:01:53;;;;;;;4.53;2.05;;;;;;;;;;5044671;28;20101;-52
2022/02/14 02:04:19;;;;;;;9.27;2.53;;;;;;;;;;5045964;28;20381;-50
2022/02/14 02:06:45;;;;;;;13.73;2.45;;;;;;;;;;5045357;28;20036;-49
2022/02/14 02:09:11;;;;;;;13.15;3.55;;;;;;;;;;5045678;28;20029;-52
2022/02/14 02:14:22;;;;;;;;;;;;;;;;;;5046862;28;20151;-51
2022/02/14 02:16:48;;;;;;;10.63;2.78;;;;;;;;;;5041480;28;20300;-52
2022/02/14 02:19:14;;;;;;;8.00;3.08;;;;;;;;;;5025747;28;20245;-52
2022/02/14 02:21:43;;;;;;;7.10;3.28;;;;;;;;;;5026869;28;20037;-52
2022/02/14 02:24:10;;;;;;;10.38;3.30;;;;;;;;;;5028999;28;20037;-52
2022/02/14 02:26:36;;;;;;;8.02;3.08;;;;;;;;;;5028812;28;20029;-49
2022/02/14 02:29:02;;;;;;;7.63;2.92;;;;;;;;;;5028712;28;20033;-51
2022/02/14 02:31:28;;;;;;;9.88;2.88;;;;;;;;;;5036796;28;20025;-48
2022/02/14 02:33:54;;;;;;;7.45;2.80;;;;;;;;;;5049349;28;20108;-52
2022/02/14 02:36:20;;;;;;;10.73;3.33;;;;;;;;;;5048890;28;20507;-52
2022/02/14 02:38:46;;;;;;;8.15;3.30;;;;;;;;;;5046619;28;20913;-52
2022/02/14 02:41:12;;;;;;;7.97;3.13;;;;;;;;;;5047886;28;20029;-50
2022/02/14 02:43:38;;;;;;;11.07;2.97;;;;;;;;;;5045501;28;20112;-52
2022/02/14 02:46:04;;;;;;;8.25;3.05;;;;;;;;;;5028674;28;20071;-51
2022/02/14 02:48:31;;;;;;;7.28;2.50;;;;;;;;;;5028876;28;20091;-52
2022/02/14 02:51:03;;;;;;;12.38;3.08;;;;;;;;;;5029874;28;20025;-53
2022/02/14 02:53:30;;;;;;;8.07;2.40;;;;;;;;;;5048870;28;20388;-48
2022/02/14 02:55:56;;;;;;;11.25;2.63;;;;;;;;;;5048508;28;20021;-49
2022/02/14 02:58:22;;;;;;;9.68;2.67;;;;;;;;;;5048295;28;20033;-50
2022/02/14 03:00:48;;;;;;;7.30;2.92;;;;;;;;;;5046007;28;20037;-50
2022/02/14 03:03:14;;;;;;;8.55;2.33;;;;;;;;;;5047697;28;20087;-49
2022/02/14 03:05:40;;;;;;;6.40;2.30;;;;;;;;;;5047950;28;20494;-51
2022/02/14 03:08:06;;;;;;;11.43;2.95;;;;;;;;;;5048097;28;20040;-52
2022/02/14 03:10:33;;;;;;;7.47;2.40;;;;;;;;;;5046635;28;20419;-51
2022/02/14 03:12:59;;;;;;;8.43;2.45;;;;;;;;;;5047504;28;20464;-52
2022/02/14 03:15:26;;;;;;;9.55;2.53;;;;;;;;;;5048562;28;20021;-49
2022/02/14 03:17:52;;;;;;;8.00;3.47;;;;;;;;;;5048456;28;20893;-52
2022/02/14 03:20:18;;;;;;;9.15;2.65;;;;;;;;;;5048241;28;20025;-52
2022/02/14 03:22:45;;;;;;;6.53;2.30;;;;;;;;;;5046506;28;20041;-52
2022/02/14 03:25:13;;;;;;;9.93;2.20;;;;;;;;;;5048127;28;20481;-52
2022/02/14 03:27:39;;;;;;;3.80;2.00;;;;;;;;;;5047629;28;20109;-51
2022/02/14 03:30:06;;;;;;;6.85;2.17;;;;;;;;;;5047697;28;20047;-51
2022/02/14 03:32:32;;;;;;;7.68;1.95;;;;;;;;;;5044862;28;20072;-51
2022/02/14 03:34:58;;;;;;;8.45;2.53;;;;;;;;;;5045800;28;20214;-51
2022/02/14 03:37:24;;;;;;;7.45;1.98;;;;;;;;;;5048514;28;20021;-50
2022/02/14 03:39:50;;;;;;;5.97;2.50;;;;;;;;;;5047358;28;20400;-53
2022/02/14 03:42:16;;;;;;;5.82;1.85;;;;;;;;;;5045831;28;20389;-50
2022/02/14 03:44:42;;;;;;;6.90;2.63;;;;;;;;;;5044835;28;20569;-49
2022/02/14 03:47:10;;;;;;;8.48;2.63;;;;;;;;;;5027685;28;20025;-52
2022/02/14 03:49:36;;;;;;;6.30;2.40;;;;;;;;;;5027499;28;20021;-51
2022/02/14 03:52:02;;;;;;;10.88;3.22;;;;;;;;;;5033981;28;20131;-50
2022/02/14 03:54:29;;;;;;;6.07;2.67;;;;;;;;;;5047660;28;20067;-52
2022/02/14 03:56:55;;;;;;;5.80;2.00;;;;;;;;;;5047832;28;20102;-49
2022/02/14 03:59:21;;;;;;;5.88;2.38;;;;;;;;;;5047142;28;20476;-51
2022/02/14 04:01:47;;;;;;;6.55;2.40;;;;;;;;;;5046020;28;20059;-51
2022/02/14 04:04:14;;;;;;;4.60;2.00;;;;;;;;;;5047435;28;20027;-52
2022/02/14 04:06:40;;;;;;;6.88;2.28;;;;;;;;;;5047028;28;20158;-52
2022/02/14 04:09:06;;;;;;;4.78;2.15;;;;;;;;;;5047080;28;20036;-51
2022/02/14 04:11:32;;;;;;;7.95;2.80;;;;;;;;;;5045137;28;20032;-51
2022/02/14 04:13:58;;;;;;;6.93;2.53;;;;;;;;;;5046742;28;20488;-52
2022/02/14 04:16:24;;;;;;;5.28;2.17;;;;;;;;;;5047828;28;20036;-51
2022/02/14 04:18:50;;;;;;;9.85;2.10;;;;;;;;;;5046515;28;20476;-52
2022/02/14 04:21:16;;;;;;;6.82;1.92;;;;;;;;;;5045609;28;20462;-50
2022/02/14 04:23:43;;;;;;;5.28;2.00;;;;;;;;;;5046656;28;20025;-52
2022/02/14 04:26:09;;;;;;;7.32;1.90;;;;;;;;;;5046925;28;20044;-50
2022/02/14 04:28:35;;;;;;;4.82;1.55;;;;;;;;;;5046693;28;20025;-50
2022/02/14 04:31:01;;;;;;;6.82;2.40;;;;;;;;;;5046520;28;20387;-52
2022/02/14 04:33:27;;;;;;;6.20;2.20;;;;;;;;;;5043919;28;20512;-52
2022/02/14 04:35:53;;;;;;;8.00;2.40;;;;;;;;;;5047154;28;20595;-51
2022/02/14 04:38:19;;;;;;;5.60;2.08;;;;;;;;;;5044777;28;20017;-52
2022/02/14 04:40:45;;;;;;;3.53;1.70;;;;;;;;;;5046655;28;20523;-52
2022/02/14 04:43:11;;;;;;;2.90;1.60;;;;;;;;;;5036983;28;20397;-51
2022/02/14 04:45:37;;;;;;;5.38;1.73;;;;;;;;;;5026464;28;20107;-52
2022/02/14 04:48:03;;;;;;;3.92;1.63;;;;;;;;;;5026755;28;20076;-51
2022/02/14 04:50:30;;;;;;;3.22;1.65;;;;;;;;;;5026462;28;20052;-52
2022/02/14 04:52:56;;;;;;;6.43;2.35;;;;;;;;;;5030099;28;20439;-50
2022/02/14 04:55:22;;;;;;;4.05;1.80;;;;;;;;;;5046163;28;20238;-50
2022/02/14 04:57:48;;;;;;;8.60;2.40;;;;;;;;;;5045676;28;20067;-51
2022/02/14 05:00:15;;;;;;;5.63;2.28;;;;;;;;;;5046052;28;20032;-52
2022/02/14 05:02:41;;;;;;;5.78;2.10;;;;;;;;;;5044889;28;20029;-48
2022/02/14 05:05:08;;;;;;;6.80;2.47;;;;;;;;;;5028729;28;20040;-52
2022/02/14 05:07:34;;;;;;;7.20;2.15;;;;;;;;;;5026358;28;20060;-51
2022/02/14 05:10:00;;;;;;;11.38;2.85;;;;;;;;;;5026175;28;20524;-52
2022/02/14 05:12:26;;;;;;;4.65;2.15;;;;;;;;;;5027272;28;20128;-53
2022/02/14 05:14:52;;;;;;;8.45;2.25;;;;;;;;;;5038252;28;20023;-52
2022/02/14 05:17:18;;;;;;;6.78;2.63;;;;;;;;;;5027652;28;20471;-50
2022/02/14 05:19:44;;;;;;;6.20;2.33;;;;;;;;;;5026132;28;20568;-52
2022/02/14 05:22:10;;;;;;;7.03;2.25;;;;;;;;;;5026452;28;20053;-51
2022/02/14 05:24:37;;;;;;;6.15;2.58;;;;;;;;;;5025764;28;20060;-52
2022/02/14 05:27:03;;;;;;;4.32;2.45;;;;;;;;;;5026228;28;20068;-52
2022/02/14 05:29:29;;;;;;;4.88;1.90;;;;;;;;;;5025882;28;20056;-52
2022/02/14 05:31:56;;;;;;;6.03;2.00;;;;;;;;;;5034270;28;20453;-51
2022/02/14 05:34:22;;;;;;;5.65;2.28;;;;;;;;;;5044978;28;20021;-51
2022/02/14 05:36:48;;;;;;;6.57;2.28;;;;;;;;;;5046014;28;20062;-52
2022/02/14 05:39:14;;;;;;;8.32;2.85;;;;;;;;;;5046026;28;20472;-52
2022/02/14 05:41:40;;;;;;;5.40;1.67;;;;;;;;;;5045877;28;20095;-53
2022/02/14 05:44:06;;;;;;;7.53;2.47;;;;;;;;;;5044534;28;20435;-51
2022/02/14 05:46:32;;;;;;;6.22;2.38;;;;;;;;;;5031505;28;20084;-51
2022/02/14 05:48:59;;;;;;;6.32;2.50;;;;;;;;;;5025657;28;20539;-52
2022/02/14 05:51:25;;;;;;;7.00;2.85;;;;;;;;;;5026329;28;20037;-49
2022/02/14 05:53:51;;;;;;;8.02;3.38;;;;;;;;;;5025775;28;20109;-52
2022/02/14 05:56:17;;;;;;;8.85;3.92;;;;;;;;;;5027273;28;20432;-52
2022/02/14 05:58:44;;;;;;;7.07;2.85;;;;;;;;;;5029177;28;20057;-51
2022/02/14 06:01:10;;;;;;;8.75;3.50;;;;;;;;;;5040057;28;20037;-51
2022/02/14 06:03:36;;;;;;;8.88;3.00;;;;;;;;;;5049655;28;20031;-52
2022/02/14 06:06:03;;;;;;;6.15;2.60;;;;;;;;;;5049043;28;20094;-52
2022/02/14 06:08:29;;;;;;;6.70;2.25;;;;;;;;;;5049395;28;20411;-52
2022/02/14 06:10:55;;;;;;;5.90;2.58;;;;;;;;;;5048558;28;20131;-52
2022/02/14 06:13:21;;;;;;;4.57;2.20;;;;;;;;;;5047198;28;20017;-53
2022/02/14 06:15:47;;;;;;;7.15;2.83;;;;;;;;;;5049116;28;20051;-51
2022/02/14 06:18:14;;;;;;;13.27;2.75;;;;;;;;;;5048399;28;20104;-51
2022/02/14 06:20:41;;;;;;;4.82;2.55;;;;;;;;;;5048989;28;20031;-51
2022/02/14 06:23:07;;;;;;;4.65;2.60;;;;;;;;;;5045253;28;20033;-52
2022/02/14 06:25:33;;;;;;;9.15;2.40;;;;;;;;;;5049069;28;20701;-51
2022/02/14 06:27:59;;;;;;;10.93;2.70;;;;;;;;;;5048626;28;20024;-50
2022/02/14 06:30:25;;;;;;;8.45;3.83;;;;;;;;;;5048818;28;20082;-51
2022/02/14 06:32:53;;;;;;;8.50;3.38;;;;;;;;;;5047797;28;20074;-52
2022/02/14 06:35:20;;;;;;;7.60;3.92;;;;;;;;;;5049018;28;20109;-52
2022/02/14 06:37:46;;;;;;;6.00;3.00;;;;;;;;;;5048728;28;20021;-49
2022/02/14 06:40:12;;;;;;;8.65;2.55;;;;;;;;;;5048730;28;20053;-52
2022/02/14 06:42:39;;;;;;;9.75;2.50;;;;;;;;;;5046781;28;20025;-53
2022/02/14 06:45:05;;;;;;;11.40;2.80;;;;;;;;;;5048668;28;20404;-52
2022/02/14 06:47:31;;;;;;;7.50;2.35;;;;;;;;;;5046913;28;20491;-52
2022/02/14 06:49:57;;;;;;;7.43;2.17;;;;;;;;;;5047867;28;20036;-52
2022/02/14 06:52:23;;;;;;;4.38;2.00;;;;;;;;;;5048344;28;20029;-51
2022/02/14 06:54:49;;;;;;;4.18;2.08;;;;;;;;;;5048006;28;20032;-52
2022/02/14 06:57:16;;;;;;;5.35;2.03;;;;;;;;;;5028402;28;20025;-51
2022/02/14 06:59:42;;;;;;;6.72;2.22;;;;;;;;;;5028112;28;20489;-51
2022/02/14 07:02:08;;;;;;;11.98;2.55;;;;;;;;;;5028480;28;20384;-49
2022/02/14 07:04:34;;;;;;;10.45;3.15;;;;;;;;;;5028394;28;20619;-52
2022/02/14 07:07:00;;;;;;;9.75;2.55;;;;;;;;;;5042478;28;20024;-52
2022/02/14 07:09:26;;;;;;;5.47;2.20;;;;;;;;;;5048685;28;20021;-50
2022/02/14 07:11:52;;;;;;;7.35;2.50;;;;;;;;;;5047910;28;20048;-52
2022/02/14 07:14:18;;;;;;;6.32;2.20;;;;;;;;;;5048382;28;20577;-53
2022/02/14 07:16:44;;;;;;;4.47;1.95;;;;;;;;;;5045918;28;20097;-53
2022/02/14 07:19:11;;;;;;;6.10;1.90;;;;;;;;;;5047009;28;20043;-52
2022/02/14 07:21:37;;;;;;;9.27;2.40;;;;;;;;;;5046880;28;20021;-52
2022/02/14 07:24:03;;;;;;;9.88;2.33;;;;;;;;;;5034425;28;20586;-53
2022/02/14 07:26:30;;;;;;;8.07;2.40;;;;;;;;;;5043910;28;20028;-50
2022/02/14 07:28:56;;;;;;;6.60;1.52;;;;;;;;;;5047694;28;20033;-51
2022/02/14 07:31:22;;;;;;;8.30;2.08;;;;;;;;;;5027108;28;20028;-50
2022/02/14 07:33:48;;;;;;;5.40;2.03;;;;;;;;;;5025930;28;20709;-49
2022/02/14 07:36:15;;;;;;;5.07;1.90;;;;;;;;;;5035569;28;20095;-49
2022/02/14 07:38:41;;;;;;;4.72;2.03;;;;;;;;;;5046546;28;20479;-51
2022/02/14 07:41:07;;;;;;;3.97;1.77;;;;;;;;;;5047126;28;20373;-51
2022/02/14 07:43:34;;;;;;;8.80;1.90;;;;;;;;;;5047528;28;20044;-51
2022/02/14 07:46:00;;;;;;;9.80;1.92;;;;;;;;;;5046235;28;20183;-52
2022/02/14 07:48:26;;;;;;;7.65;1.95;;;;;;;;;;5047762;28;20112;-52
2022/02/14 07:50:52;;;;;;;4.28;1.90;;;;;;;;;;5044453;28;20033;-51
2022/02/14 07:53:19;;;;;;;5.00;2.10;;;;;;;;;;5047425;28;20109;-51
2022/02/14 07:55:45;;;;;;;7.35;1.90;;;;;;;;;;5034465;28;20048;-52
2022/02/14 07:58:12;;;;;;;4.72;1.83;;;;;;;;;;5027286;28;20045;-53
2022/02/14 08:00:39;;;;;;;6.03;1.52;;;;;;;;;;5042623;28;20150;-51
2022/02/14 08:03:06;;;;;;;3.13;1.48;;;;;;;;;;5047206;28;20108;-52
2022/02/14 08:05:32;;;;;;;5.70;1.88;;;;;;;;;;5030027;28;20417;-52
2022/02/14 08:07:58;;;;;;;4.85;1.83;;;;;;;;;;5044786;28;20563;-50
2022/02/14 08:10:24;;;;;;;5.45;2.45;;;;;;;;;;5045633;28;20510;-51
2022/02/14 08:12:50;;;;;;;4.25;1.40;;;;;;;;;;5046336;28;20108;-51
2022/02/14 08:15:18;;;;;;;5.40;1.90;;;;;;;;;;5031952;28;20053;-51
2022/02/14 08:17:44;;;;;;;4.07;1.45;;;;;;;;;;5028289;28;20025;-54
2022/02/14 08:20:10;;;;;;;5.43;1.40;;;;;;;;;;5027298;28;20515;-52
2022/02/14 08:22:36;;;;;;;2.33;1.27;;;;;;;;;;5026955;28;20068;-52
2022/02/14 08:25:02;;;;;;;5.30;1.45;;;;;;;;;;5030867;28;20563;-50
2022/02/14 08:27:28;;;;;;;2.22;1.05;;;;;;;;;;5036366;28;20107;-50
2022/02/14 08:29:57;;;;;;;3.22;1.20;;;;;;;;;;5038027;28;20033;-52
2022/02/14 08:32:23;;;;;;;1.98;1.10;;;;;;;;;;5029992;28;20416;-51
2022/02/14 08:34:49;;;;;;;4.20;1.30;;;;;;;;;;5037202;28;20866;-53
2022/02/14 08:37:15;;;;;;;3.40;1.20;;;;;;;;;;5036553;28;20032;-53
2022/02/14 08:39:42;;;;;;;2.13;1.10;;;;;;;;;;5043653;28;20523;-53
2022/02/14 08:42:08;;;;;;;2.80;1.10;;;;;;;;;;5036833;28;20024;-51
2022/02/14 08:44:34;;;;;;;1.85;1.20;;;;;;;;;;5034053;28;20041;-52
2022/02/14 08:47:01;;;;;;;3.83;1.20;;;;;;;;;;5035607;28;20021;-53
2022/02/14 08:49:28;;;;;;;3.72;1.65;;;;;;;;;;5032304;28;20116;-51
2022/02/14 08:51:55;;;;;;;2.95;1.40;;;;;;;;;;5031369;28;20060;-51
2022/02/14 08:54:21;;;;;;;1.80;1.02;;;;;;;;;;5035147;28;20032;-53
2022/02/14 08:56:47;;;;;;;1.45;1.10;;;;;;;;;;5029114;28;20022;-53
2022/02/14 08:59:19;;;;;;;3.28;1.55;;;;;;;;;;5035805;28;20037;-52
2022/02/14 09:01:45;;;;;;;2.95;1.60;;;;;;;;;;5029851;28;20120;-52
2022/02/14 09:04:11;;;;;;;2.75;1.40;;;;;;;;;;5045011;28;20037;-50
2022/02/14 09:06:37;;;;;;;3.47;1.55;;;;;;;;;;5040175;28;20044;-52
2022/02/14 09:09:04;;;;;;;3.47;1.50;;;;;;;;;;5048171;28;20064;-50
2022/02/14 09:11:30;;;;;;;2.45;1.45;;;;;;;;;;5043069;28;20400;-52
2022/02/14 09:13:56;;;;;;;4.55;1.70;;;;;;;;;;5028725;28;20373;-51
2022/02/14 09:16:22;;;;;;;5.60;2.00;;;;;;;;;;5045470;28;20071;-50
2022/02/14 09:18:48;;;;;;;4.75;1.90;;;;;;;;;;5043023;28;20025;-50
2022/02/14 09:21:15;;;;;;;2.88;1.50;;;;;;;;;;5059173;28;20043;-52
2022/02/14 09:23:42;;;;;;;2.45;1.25;;;;;;;;;;5059289;28;20068;-48
2022/02/14 09:26:08;;;;;;;1.75;1.13;;;;;;;;;;5046469;28;20029;-51
2022/02/14 09:28:35;;;;;;;2.33;1.10;;;;;;;;;;5035444;28;20037;-49
2022/02/14 09:31:01;;;;;;;3.28;1.42;;;;;;;;;;5044767;28;20036;-53
2022/02/14 09:33:27;;;;;;;2.65;1.30;;;;;;;;;;5045041;28;20103;-53
2022/02/14 09:35:54;;;;;;;2.22;1.10;;;;;;;;;;5034019;28;20059;-52
2022/02/14 09:38:20;;;;;;;2.28;1.10;;;;;;;;;;5044535;28;20838;-51
2022/02/14 09:40:46;;;;;;;1.90;1.20;;;;;;;;;;5030953;28;20037;-53
2022/02/14 09:43:13;;;;;;;1.50;0.90;;;;;;;;;;5031743;28;20030;-52
2022/02/14 09:45:40;;;;;;;2.08;1.10;;;;;;;;;;5030431;28;20022;-51
2022/02/14 09:48:08;;;;;;;2.20;1.55;;;;;;;;;;5044688;28;20064;-51
2022/02/14 09:50:36;;;;;;;1.85;1.10;;;;;;;;;;5038256;28;20155;-53
2022/02/14 09:53:06;;;;;;;2.38;1.45;;;;;;;;;;5039089;28;20033;-51
2022/02/14 09:55:33;;;;;;;2.70;1.42;;;;;;;;;;5029581;28;20104;-53
2022/02/14 09:57:59;;;;;;;3.03;1.42;;;;;;;;;;5035016;28;20030;-53
2022/02/14 10:00:25;;;;;;;2.38;1.05;;;;;;;;;;5049990;28;20479;-53
2022/02/14 10:03:15;;;;;;;3.08;1.63;;;;;;;;;;5040205;28;20029;-53
2022/02/14 10:05:43;;;;;;;4.18;1.63;;;;;;;;;;5033836;28;20029;-51
2022/02/14 10:08:09;;;;;;;2.95;1.38;;;;;;;;;;5039827;28;20044;-52
2022/02/14 10:10:37;;;;;;;2.92;1.42;;;;;;;;;;5041175;28;20099;-51
2022/02/14 10:13:04;;;;;;;4.93;1.90;;;;;;;;;;5046996;28;20036;-50
2022/02/14 10:15:30;;;;;;;6.22;1.95;;;;;;;;;;5047134;28;20017;-51
2022/02/14 10:17:59;;;;;;;6.78;2.28;;;;;;;;;;5030047;28;20025;-51
2022/02/14 10:20:26;;;;;;;1.30;1.08;;;;;;;;;;5036181;28;20044;-48
2022/02/14 10:23:02;;;;;;;3.42;1.05;;;;;;;;;;5033143;28;20108;-51
2022/02/14 10:25:31;;;;;;;1.90;0.80;;;;;;;;;;5038575;28;20823;-50
2022/02/14 10:28:16;;;;;;;2.38;0.93;;;;;;;;;;5044642;28;20033;-49
2022/02/14 10:30:42;;;;;;;;;;;;;;;;;;5048398;28;20462;-49
2022/02/14 10:33:08;;;;;;;2.97;0.90;;;;;;;;;;5045332;28;20004;-52
2022/02/14 10:35:45;;;;;;;0.77;0.55;;;;;;;;;;5030654;28;20663;-50
2022/02/14 10:38:12;;;;;;;1.33;0.80;;;;;;;;;;5033344;28;20074;-47
2022/02/14 10:40:39;;;;;;;0.82;0.70;;;;;;;;;;5035087;28;20030;-48
2022/02/14 10:43:06;;;;;;;1.00;0.60;;;;;;;;;;5035885;28;20381;-48
2022/02/14 10:45:34;;;;;;;0.60;0.45;;;;;;;;;;5047264;28;20025;-50
2022/02/14 10:48:09;;;;;;;0.93;0.47;;;;;;;;;;5034912;28;20708;-49
2022/02/14 10:50:35;;;;;;;2.33;0.70;;;;;;;;;;5039479;28;20029;-48
2022/02/14 10:53:05;;;;;;;1.05;0.63;;;;;;;;;;5047866;28;20024;-50
2022/02/14 10:55:34;;;;;;;0.95;0.63;;;;;;;;;;5038340;28;20096;-48
2022/02/14 10:58:01;;;;;;;0.65;0.60;;;;;;;;;;5042255;28;20017;-50
2022/02/14 11:00:30;;;;;;;3.75;2.50;;;;;;;;;;5045510;28;20025;-51
2022/02/14 11:02:58;;;;;;;3.40;1.92;;;;;;;;;;5048718;28;20075;-50
2022/02/14 11:05:27;;;;;;;1.73;1.27;;;;;;;;;;5040052;28;20045;-50
2022/02/14 11:08:01;;;;;;;1.75;1.35;;;;;;;;;;5034151;28;20064;-47
2022/02/14 11:10:27;;;;;;;2.13;0.85;;;;;;;;;;5043079;28;20034;-47
2022/02/14 11:12:57;;;;;;;0.50;0.50;;;;;;;;;;5033282;28;20041;-50
2022/02/14 11:15:35;;;;;;;1.35;0.73;;;;;;;;;;5046912;28;20502;-49
2022/02/14 11:18:03;;;;;;;2.28;0.70;;;;;;;;;;5036656;28;20171;-51
2022/02/14 11:20:29;;;;;;;0.50;0.50;;;;;;;;;;5027681;28;20489;-51
2022/02/14 11:23:00;;;;;;;0.52;0.52;;;;;;;;;;5028037;28;20044;-51
2022/02/14 11:25:46;;;;;;;1.00;0.80;;;;;;;;;;5028432;28;20045;-50
2022/02/14 11:28:18;;;;;;;1.60;1.00;;;;;;;;;;5032260;28;20496;-50
2022/02/14 11:31:05;;;;;;;2.15;1.20;;;;;;;;;;5046188;28;20040;-49
2022/02/14 11:33:34;;;;;;;5.38;1.70;;;;;;;;;;5026401;28;20022;-51
2022/02/14 11:36:02;;;;;;;2.92;1.77;;;;;;;;;;5028678;28;20038;-52
2022/02/14 11:38:46;;;;;;;3.60;1.48;;;;;;;;;;5032348;28;20017;-52
2022/02/14 11:41:25;;;;;;;1.77;1.23;;;;;;;;;;5033214;28;20041;-51
2022/02/14 11:43:51;;;;;;;1.63;1.20;;;;;;;;;;5028217;28;20052;-50
2022/02/14 11:46:25;;;;;;;3.17;1.35;;;;;;;;;;5028396;28;20436;-52
2022/02/14 11:48:52;;;;;;;2.00;1.17;;;;;;;;;;5037639;28;20142;-51
2022/02/14 11:51:23;;;;;;;1.27;0.90;;;;;;;;;;5028703;28;21063;-49
2022/02/14 11:53:51;;;;;;;3.30;1.10;;;;;;;;;;5041418;28;20104;-48
2022/02/14 11:56:23;;;;;;;4.10;2.17;;;;;;;;;;5047933;28;20384;-51
2022/02/14 11:59:27;;;;;;;3.22;1.77;;;7.50;99.90;;;;;;5045006;28;20033;-50
2022/02/14 12:01:55;;;;;;;3.17;1.95;;;7.60;99.90;;;;;;5033221;28;20403;-49
2022/02/14 12:04:42;;;;;;;2.60;1.58;;;7.50;99.90;;;;;;5031273;28;20037;-49
2022/02/14 12:07:16;;;;;;;8.27;4.10;;;7.60;99.90;;;;;;5029120;28;20124;-50
2022/02/14 12:09:57;;;;;;;9.43;4.32;;;7.30;99.90;;;;;;5029350;28;20396;-52
2022/02/14 12:12:51;;;;;;;7.90;3.78;;;7.50;99.90;;;;;;5037089;28;20025;-51
2022/02/14 12:21:02;;;;;;;;;;;7.70;99.90;;;;;;5037039;28;20467;-49
2022/02/14 12:23:29;;;;;;;3.30;1.75;;;;;;;;;;5044737;28;19908;-49
2022/02/14 12:25:55;;;;;;;2.05;1.20;;;;;;;;;;5032685;28;20029;-51
2022/02/14 12:28:25;;;;;;;2.00;1.30;;;;;;;;;;5029137;28;20028;-51
2022/02/14 12:30:52;;;;;;;3.53;1.42;;;;;;;;;;5039124;28;20036;-52
2022/02/14 12:33:19;;;;;;;1.63;1.10;;;;;;;;;;5034618;28;20152;-49
2022/02/14 12:35:50;;;;;;;3.55;1.52;;;;;;;;;;5042804;28;20033;-52
2022/02/14 12:38:16;;;;;;;1.92;1.20;;;;;;;;;;5036928;28;20040;-51
2022/02/14 12:40:45;;;;;;;3.35;1.48;;;;;;;;;;5045642;28;20036;-49
2022/02/14 12:43:11;;;;;;;3.00;1.45;;;;;;;;;;5027571;28;20029;-52
2022/02/14 12:45:37;;;;;;;3.85;1.77;;;;;;;;;;5033670;28;20575;-51
2022/02/14 12:48:03;;;;;;;3.78;1.90;;;;;;;;;;5038002;28;20112;-51
2022/02/14 12:50:37;;;;;;;3.53;2.20;;;;;;;;;;5037388;28;20087;-50
2022/02/14 12:53:09;;;;;;;5.18;2.25;;;;;;;;;;5047016;28;20048;-51
2022/02/14 12:55:35;;;;;;;3.30;2.13;;;;;;;;;;5027224;28;20044;-50
2022/02/14 12:58:01;;;;;;;2.47;1.60;;;;;;;;;;5030292;28;20416;-52
2022/02/14 13:00:33;;;;;;;2.55;1.45;;;;;;;;;;5039249;28;20029;-49
2022/02/14 13:03:03;;;;;;;1.60;1.20;;;;;;;;;;5033722;28;20473;-52
2022/02/14 13:05:31;;;;;;;2.30;1.42;;;;;;;;;;5049837;28;20036;-52
2022/02/14 13:07:58;;;;;;;1.65;1.30;;;;;;;;;;5038136;28;20049;-50
2022/02/14 13:10:25;;;;;;;1.95;1.20;;;;;;;;;;5027449;28;20025;-53
2022/02/14 13:12:58;;;;;;;1.95;1.52;;;;;;;;;;5034514;28;20033;-52
2022/02/14 13:15:25;;;;;;;2.30;1.50;;;;;;;;;;5039088;28;20029;-50
2022/02/14 13:17:51;;;;;;;2.03;1.38;;;;;;;;;;5027380;28;20026;-52
2022/02/14 13:20:17;;;;;;;2.50;1.70;;;;;;;;;;5046648;28;20060;-51
2022/02/14 13:22:44;;;;;;;1.98;1.50;;;;;;;;;;5032225;28;20571;-51
2022/02/14 13:25:19;;;;;;;2.80;1.80;;;;;;;;;;5027190;28;20524;-49
2022/02/14 13:27:45;;;;;;;4.63;2.22;;;;;;;;;;5030366;28;20120;-50
2022/02/14 13:30:13;;;;;;;3.50;2.13;;;;;;;;;;5026626;28;20069;-51
2022/02/14 13:32:39;;;;;;;3.33;2.05;;;;;;;;;;5040926;28;20108;-52
2022/02/14 13:35:08;;;;;;;3.45;2.10;;;;;;;;;;5027178;28;20405;-48
2022/02/14 13:37:48;;;;;;;1.42;1.33;;;;;;;;;;5029012;28;20159;-52
2022/02/14 13:40:20;;;;;;;3.40;1.80;;;;;;;;;;5040517;28;20068;-50
2022/02/14 13:42:46;;;;;;;1.88;1.38;;;;;;;;;;5046414;28;20025;-52
2022/02/14 13:45:12;;;;;;;2.38;1.50;;;;;;;;;;5031713;28;20048;-51
2022/02/14 13:47:38;;;;;;;2.47;1.67;;;;;;;;;;5041582;28;20080;-52
2022/02/14 13:50:24;;;;;;;2.67;1.65;;;;;;;;;;5035100;28;20037;-51
2022/02/14 13:52:50;;;;;;;1.98;1.38;;;;;;;;;;5038201;28;20033;-51
2022/02/14 13:55:17;;;;;;;3.83;2.40;;;;;;;;;;5046488;28;20029;-52
2022/02/14 13:57:44;;;;;;;2.65;1.80;;;;;;;;;;5027087;28;20021;-54
2022/02/14 14:00:30;;;;;;;1.63;1.20;;;;;;;;;;5039760;28;20033;-52
2022/02/14 14:03:06;;;;;;;2.83;1.10;;;;;;;;;;5040964;28;20036;-52
2022/02/14 14:05:36;;;;;;;2.35;1.30;;;;;;;;;;5026634;28;20781;-53
2022/02/14 14:08:03;;;;;;;1.80;1.40;;;;;;;;;;5036069;28;20096;-52
2022/02/14 14:10:38;;;;;;;1.95;1.13;;;;;;;;;;5026872;28;20032;-52
2022/02/14 14:13:04;;;;;;;1.98;1.48;;;;;;;;;;5032047;28;20028;-52
2022/02/14 14:15:30;;;;;;;1.80;1.17;;;;;;;;;;5027094;28;20017;-51
2022/02/14 14:17:56;;;;;;;1.65;1.15;;;;;;;;;;5042254;28;20032;-50
2022/02/14 14:20:24;;;;;;;0.80;0.80;;;;;;;;;;5048497;28;20074;-50
2022/02/14 14:22:51;;;;;;;1.38;0.82;;;;;;;;;;5047462;28;20048;-50
2022/02/14 14:25:17;;;;;;;1.75;0.90;;;;;;;;;;5048837;28;20033;-49
2022/02/14 14:27:47;;;;;;;1.30;0.82;;;;;;;;;;5048785;28;20029;-49
2022/02/14 14:30:13;;;;;;;2.17;0.90;;;;;;;;;;5032781;28;20098;-48
2022/02/14 14:32:41;;;;;;;0.85;0.82;;;;;;;;;;5045466;28;20023;-48
2022/02/14 14:35:07;;;;;;;1.80;0.63;;;;;;;;;;5041918;28;20672;-49
2022/02/14 14:37:36;;;;;;;0.80;0.60;;;;;;;;;;5047206;28;20028;-49
2022/02/14 14:40:03;;;;;;;0.95;0.80;;;;;;;;;;5043900;28;20072;-51
2022/02/14 14:42:29;;;;;;;1.10;0.85;;;;;;;;;;5035524;28;20174;-52
2022/02/14 14:44:55;;;;;;;1.52;1.10;;;9.00;99.90;;;;;;5038605;28;20040;-52
2022/02/14 14:47:21;;;;;;;1.35;0.98;;;9.10;99.90;;;;;;5042015;28;20025;-51
2022/02/14 14:49:47;;;;;;;1.67;1.17;;;9.10;99.90;;;;;;5028259;28;20087;-52
2022/02/14 14:52:13;;;;;;;2.22;1.60;;;9.10;99.90;;;;;;5034946;28;20087;-50